Time;durP1;ratioP1;P1;durP2;ratioP2;P2;SDS_P1;SDS_P2;PMS_P1;PMS_P2;Temp;Humidity;BMP_temperature;BMP_pressure;BME280_temperature;BME280_humidity;BME280_pressure;Samples;Min_cycle;Max_cycle;Signal;HPM_P1;HPM_P2
2021/03/16 00:02:25;;;;;;;8.00;4.10;;;5.00;85.50;;;;;;5112977;28;20031;-65
2021/03/16 00:04:51;;;;;;;8.75;3.95;;;5.00;85.70;;;;;;5098230;28;20069;-65
2021/03/16 00:07:19;;;;;;;12.18;4.22;;;5.10;85.80;;;;;;5075087;28;20032;-65
2021/03/16 00:09:45;;;;;;;13.23;4.75;;;5.10;85.60;;;;;;5105544;28;20043;-66
2021/03/16 00:12:10;;;;;;;7.95;4.50;;;5.10;85.30;;;;;;5112784;28;20069;-65
2021/03/16 00:14:36;;;;;;;9.15;4.35;;;5.00;85.70;;;;;;5106085;28;20036;-66
2021/03/16 00:17:02;;;;;;;10.50;4.47;;;5.00;85.70;;;;;;5112635;28;20028;-66
2021/03/16 00:19:28;;;;;;;8.88;4.22;;;5.00;85.50;;;;;;5102768;28;20078;-66
2021/03/16 00:21:54;;;;;;;14.05;4.85;;;5.00;85.50;;;;;;5074297;28;20035;-64
2021/03/16 00:24:20;;;;;;;8.45;3.78;;;5.00;85.20;;;;;;5099450;28;20051;-63
2021/03/16 00:26:45;;;;;;;7.22;3.78;;;4.90;85.60;;;;;;5112954;28;20023;-65
2021/03/16 00:29:11;;;;;;;16.10;4.20;;;4.90;85.40;;;;;;5112575;28;20386;-66
2021/03/16 00:31:36;;;;;;;8.60;3.97;;;5.10;85.40;;;;;;5092235;28;20031;-64
2021/03/16 00:34:02;;;;;;;9.30;3.60;;;5.00;85.10;;;;;;5105539;28;20036;-64
2021/03/16 00:36:28;;;;;;;10.38;4.20;;;4.90;85.20;;;;;;5091091;28;20059;-65
2021/03/16 00:38:53;;;;;;;11.15;3.53;;;5.00;85.20;;;;;;5093814;28;20046;-65
2021/03/16 00:41:19;;;;;;;5.55;3.20;;;4.90;84.90;;;;;;5094335;28;20055;-65
2021/03/16 00:43:46;;;;;;;9.85;3.70;;;5.00;85.10;;;;;;5111327;28;20115;-65
2021/03/16 00:46:11;;;;;;;10.88;3.63;;;4.90;85.00;;;;;;5083630;28;20475;-65
2021/03/16 00:48:37;;;;;;;7.78;3.60;;;5.00;85.10;;;;;;5113406;28;20047;-65
2021/03/16 00:51:03;;;;;;;9.40;4.10;;;4.90;84.80;;;;;;5093190;28;20495;-65
2021/03/16 00:53:28;;;;;;;12.35;4.22;;;5.00;84.70;;;;;;5092315;28;20039;-66
2021/03/16 00:55:54;;;;;;;7.90;4.10;;;4.90;85.00;;;;;;5092741;28;20039;-65
2021/03/16 00:58:27;;;;;;;10.05;3.92;;;4.90;85.20;;;;;;5074978;28;20399;-66
2021/03/16 01:00:54;;;;;;;10.23;3.72;;;4.90;85.00;;;;;;5109139;28;20538;-66
2021/03/16 01:03:20;;;;;;;9.45;4.47;;;4.90;85.40;;;;;;5094744;28;20036;-65
2021/03/16 01:05:47;;;;;;;13.30;4.40;;;5.00;85.00;;;;;;5097989;28;20094;-67
2021/03/16 01:08:13;;;;;;;8.18;4.05;;;4.90;85.50;;;;;;5092705;28;20029;-63
2021/03/16 01:10:39;;;;;;;13.07;4.57;;;5.00;85.30;;;;;;5088297;28;20043;-63
2021/03/16 01:13:04;;;;;;;15.13;4.38;;;5.00;85.40;;;;;;5111724;28;20035;-65
2021/03/16 01:15:30;;;;;;;12.05;4.40;;;5.00;85.40;;;;;;5077598;28;20048;-65
2021/03/16 01:17:55;;;;;;;11.15;4.32;;;4.80;86.10;;;;;;5113121;28;20475;-66
2021/03/16 01:20:23;;;;;;;10.38;4.80;;;4.90;86.60;;;;;;5092248;28;20034;-66
2021/03/16 01:22:49;;;;;;;13.02;5.05;;;4.80;86.60;;;;;;5110902;28;20179;-66
2021/03/16 01:25:14;;;;;;;8.73;4.43;;;4.80;87.10;;;;;;5114073;28;20486;-66
2021/03/16 01:27:40;;;;;;;14.65;5.22;;;4.90;87.10;;;;;;5116036;28;20047;-66
2021/03/16 01:30:08;;;;;;;8.95;4.47;;;4.80;87.40;;;;;;5098228;28;20531;-65
2021/03/16 01:32:34;;;;;;;11.68;5.05;;;4.80;87.70;;;;;;5115600;28;20039;-66
2021/03/16 01:35:01;;;;;;;11.50;4.82;;;4.70;87.70;;;;;;5116399;28;20074;-65
2021/03/16 01:37:27;;;;;;;10.25;5.32;;;4.80;87.50;;;;;;5105134;28;20127;-66
2021/03/16 01:39:53;;;;;;;10.85;5.40;;;4.80;88.00;;;;;;5096818;28;20123;-65
2021/03/16 01:42:18;;;;;;;11.88;5.43;;;4.90;87.70;;;;;;5099338;28;20039;-65
2021/03/16 01:44:45;;;;;;;15.05;5.20;;;4.80;88.10;;;;;;5115979;28;20028;-65
2021/03/16 01:47:17;;;;;;;14.07;5.68;;;4.80;87.80;;;;;;5116034;28;20035;-65
2021/03/16 01:49:43;;;;;;;10.35;5.22;;;4.80;88.80;;;;;;5116293;28;20635;-64
2021/03/16 01:52:11;;;;;;;15.38;6.13;;;4.90;88.50;;;;;;5109553;28;20484;-64
2021/03/16 01:54:40;;;;;;;12.77;5.10;;;5.00;87.70;;;;;;5112297;28;20030;-65
2021/03/16 01:57:07;;;;;;;9.30;5.43;;;5.00;88.00;;;;;;5118033;28;20569;-64
2021/03/16 01:59:35;;;;;;;12.07;6.78;;;5.10;88.20;;;;;;5118624;28;20070;-65
2021/03/16 02:02:02;;;;;;;14.85;5.57;;;4.90;88.90;;;;;;5112335;28;20093;-65
2021/03/16 02:04:27;;;;;;;14.10;5.72;;;4.70;89.80;;;;;;5096206;28;20036;-65
2021/03/16 02:07:05;;;;;;;17.90;5.97;;;4.50;89.70;;;;;;5080927;28;20050;-64
2021/03/16 02:10:00;;;;;;;13.65;6.22;;;4.70;90.00;;;;;;5115927;28;20031;-64
2021/03/16 02:12:31;;;;;;;13.00;5.55;;;4.70;89.00;;;;;;5108774;28;20047;-63
2021/03/16 02:15:25;;;;;;;12.65;6.00;;;4.70;89.50;;;;;;5103705;28;20036;-65
2021/03/16 02:17:55;;;;;;;12.77;6.25;;;4.80;89.10;;;;;;5066468;28;20180;-65
2021/03/16 02:20:30;;;;;;;11.93;6.25;;;4.90;88.90;;;;;;5107087;28;20398;-64
2021/03/16 02:22:57;;;;;;;19.67;7.10;;;4.80;89.00;;;;;;5115773;28;20444;-65
2021/03/16 02:26:06;;;;;;;15.40;6.10;;;4.70;88.80;;;;;;5115149;28;20032;-64
2021/03/16 02:28:32;;;;;;;13.65;6.40;;;4.80;88.90;;;;;;5114249;28;20055;-65
2021/03/16 02:31:01;;;;;;;13.95;5.57;;;4.90;88.10;;;;;;5114849;28;20062;-65
2021/03/16 02:33:36;;;;;;;16.77;6.50;;;4.90;87.80;;;;;;5115578;28;20038;-65
2021/03/16 02:36:02;;;;;;;12.77;6.53;;;4.90;87.70;;;;;;5113176;28;20102;-65
2021/03/16 02:38:36;;;;;;;13.88;6.57;;;4.90;87.90;;;;;;5077684;28;20040;-65
2021/03/16 02:41:05;;;;;;;16.33;7.25;;;5.00;87.80;;;;;;5095040;28;20028;-66
2021/03/16 02:43:31;;;;;;;19.05;7.35;;;5.00;87.40;;;;;;5115440;28;20028;-64
2021/03/16 02:46:02;;;;;;;16.92;7.90;;;4.90;87.90;;;;;;5115811;28;20032;-66
2021/03/16 02:48:28;;;;;;;14.60;8.05;;;4.90;87.90;;;;;;5094532;28;20047;-65
2021/03/16 02:50:54;;;;;;;19.23;9.13;;;4.80;88.40;;;;;;5095115;28;20050;-65
2021/03/16 02:53:21;;;;;;;20.58;10.02;;;4.90;88.40;;;;;;5095724;28;20066;-66
2021/03/16 02:55:47;;;;;;;25.45;12.00;;;4.90;88.40;;;;;;5114584;28;20042;-65
2021/03/16 02:58:14;;;;;;;20.42;11.00;;;5.00;88.60;;;;;;5098905;28;20040;-65
2021/03/16 03:00:40;;;;;;;21.92;12.82;;;4.90;88.60;;;;;;5108207;28;20517;-64
2021/03/16 03:03:07;;;;;;;26.98;12.77;;;4.90;88.80;;;;;;5082364;28;20046;-64
2021/03/16 03:05:33;;;;;;;23.55;13.73;;;4.90;88.60;;;;;;5105969;28;20112;-64
2021/03/16 03:07:59;;;;;;;21.02;13.40;;;4.80;88.80;;;;;;5096352;28;20024;-64
2021/03/16 03:10:25;;;;;;;19.13;12.73;;;4.70;89.50;;;;;;5114562;28;20131;-65
2021/03/16 03:12:53;;;;;;;28.85;14.57;;;4.70;88.90;;;;;;5114951;28;20115;-64
2021/03/16 03:15:19;;;;;;;26.40;12.63;;;4.70;89.20;;;;;;5113559;28;20395;-64
2021/03/16 03:17:46;;;;;;;25.05;13.00;;;4.60;89.10;;;;;;5113796;28;20020;-64
2021/03/16 03:20:13;;;;;;;20.30;12.82;;;4.70;89.10;;;;;;5106409;28;20059;-65
2021/03/16 03:23:04;;;;;;;26.15;12.60;;;4.70;88.80;;;;;;5093733;28;20032;-66
2021/03/16 03:25:40;;;;;;;19.10;11.63;;;4.70;88.40;;;;;;5107862;28;20043;-65
2021/03/16 03:28:12;;;;;;;21.67;12.75;;;4.60;89.10;;;;;;5114607;28;20077;-66
2021/03/16 03:30:38;;;;;;;19.38;11.52;;;4.50;89.30;;;;;;5103934;28;20093;-64
2021/03/16 03:33:06;;;;;;;29.45;12.02;;;4.60;88.90;;;;;;5094184;28;20040;-64
2021/03/16 03:35:35;;;;;;;18.88;11.35;;;4.60;89.00;;;;;;5101853;28;20453;-66
2021/03/16 03:38:02;;;;;;;18.52;11.55;;;4.60;88.20;;;;;;5114227;28;20436;-64
2021/03/16 03:40:29;;;;;;;20.33;10.57;;;4.60;88.80;;;;;;5106803;28;20040;-64
2021/03/16 03:43:01;;;;;;;19.98;10.35;;;4.50;87.70;;;;;;5076192;28;20119;-64
2021/03/16 03:45:27;;;;;;;18.10;9.48;;;4.60;87.90;;;;;;5094086;28;20494;-65
2021/03/16 03:48:00;;;;;;;21.77;11.15;;;4.50;88.50;;;;;;5093390;28;20032;-64
2021/03/16 03:50:26;;;;;;;16.80;9.70;;;4.40;88.50;;;;;;5099117;28;20035;-64
2021/03/16 03:52:53;;;;;;;16.05;9.63;;;4.40;87.90;;;;;;5130168;27;20024;-65
2021/03/16 03:55:21;;;;;;;20.88;9.85;;;4.40;87.60;;;;;;5109261;28;20072;-64
2021/03/16 03:57:47;;;;;;;24.23;10.48;;;4.40;87.60;;;;;;5093869;28;20047;-65
2021/03/16 04:00:14;;;;;;;18.10;11.25;;;4.40;88.40;;;;;;5096127;28;20036;-65
2021/03/16 04:03:36;;;;;;;16.05;9.43;;;4.30;88.10;;;;;;5095662;28;20032;-65
2021/03/16 04:06:04;;;;;;;16.95;11.38;;;4.30;88.20;;;;;;5113826;28;20038;-66
2021/03/16 04:08:44;;;;;;;17.52;10.68;;;4.30;88.00;;;;;;5078761;28;20052;-66
2021/03/16 04:11:11;;;;;;;21.75;11.35;;;4.30;87.80;;;;;;5103188;28;20479;-66
2021/03/16 04:40:31;;;;;;;23.30;14.00;;;4.20;89.10;;;;;;5109344;28;20027;-66
2021/03/16 04:42:56;;;;;;;19.63;10.95;;;4.20;89.10;;;;;;5092168;28;20038;-65
2021/03/16 04:45:28;;;;;;;17.23;9.63;;;4.20;88.30;;;;;;5101893;28;20043;-64
2021/03/16 04:51:23;;;;;;;13.52;7.55;;;4.10;87.50;;;;;;5096477;28;20032;-65
2021/03/16 04:53:48;;;;;;;14.77;8.00;;;4.10;87.40;;;;;;5092397;28;20028;-65
2021/03/16 04:56:14;;;;;;;12.98;8.23;;;4.10;87.40;;;;;;5058949;28;20407;-64
2021/03/16 04:58:39;;;;;;;16.10;7.45;;;4.00;87.20;;;;;;5074374;28;20059;-64
2021/03/16 05:01:05;;;;;;;21.60;8.57;;;4.00;87.20;;;;;;5091947;28;20113;-65
2021/03/16 05:07:36;;;;;;;16.73;7.90;;;3.90;87.50;;;;;;5097094;28;20476;-65
2021/03/16 05:10:03;;;;;;;16.80;8.90;;;3.90;87.60;;;;;;5107396;28;20055;-64
2021/03/16 05:12:29;;;;;;;21.98;9.27;;;4.00;87.70;;;;;;5116660;28;20406;-65
2021/03/16 05:14:54;;;;;;;13.93;10.18;;;4.00;87.80;;;;;;5114438;28;20089;-65
2021/03/16 05:17:20;;;;;;;19.10;10.18;;;4.00;87.80;;;;;;5098574;28;20084;-64
2021/03/16 05:23:41;;;;;;;18.15;10.25;;;3.90;88.40;;;;;;5116496;28;20028;-67
2021/03/16 05:29:29;;;;;;;16.25;9.85;;;4.00;87.40;;;;;;5112840;28;20126;-66
2021/03/16 05:31:55;;;;;;;25.30;11.50;;;4.00;87.30;;;;;;5096362;28;20054;-65
2021/03/16 05:34:20;;;;;;;20.42;10.98;;;3.90;87.70;;;;;;5098464;28;20043;-66
2021/03/16 05:36:49;;;;;;;22.02;11.65;;;3.90;87.40;;;;;;5098612;28;20433;-64
2021/03/16 05:39:15;;;;;;;19.40;10.65;;;3.90;87.70;;;;;;5115706;28;20053;-65
2021/03/16 05:41:41;;;;;;;19.83;11.40;;;3.90;87.70;;;;;;5116042;28;20032;-64
2021/03/16 05:44:11;;;;;;;23.60;13.18;;;3.90;87.40;;;;;;5116376;28;20035;-65
2021/03/16 05:46:37;;;;;;;20.90;12.00;;;4.00;87.00;;;;;;5097891;28;20035;-66
2021/03/16 05:49:06;;;;;;;23.92;11.55;;;4.00;86.90;;;;;;5116292;28;20099;-66
2021/03/16 05:51:33;;;;;;;17.65;12.48;;;3.90;87.30;;;;;;5096901;28;20043;-66
2021/03/16 05:53:58;;;;;;;23.20;13.65;;;3.90;87.00;;;;;;5077869;28;20036;-65
2021/03/16 05:56:25;;;;;;;20.45;11.55;;;3.90;87.00;;;;;;5113488;28;20038;-66
2021/03/16 05:58:51;;;;;;;25.63;12.25;;;3.80;86.90;;;;;;5116449;28;20084;-65
2021/03/16 06:01:17;;;;;;;21.60;11.60;;;3.80;87.10;;;;;;5099301;28;20032;-65
2021/03/16 06:03:45;;;;;;;21.65;11.23;;;3.80;87.00;;;;;;5096413;28;20119;-64
2021/03/16 06:06:11;;;;;;;17.63;11.38;;;3.90;85.80;;;;;;5110172;28;20365;-64
2021/03/16 06:08:37;;;;;;;22.73;12.13;;;3.80;86.30;;;;;;5097388;28;20032;-66
2021/03/16 06:11:06;;;;;;;19.02;11.73;;;3.80;86.50;;;;;;5102781;28;20036;-66
2021/03/16 06:13:32;;;;;;;20.38;11.38;;;3.60;87.20;;;;;;5077121;28;20093;-64
2021/03/16 06:16:11;;;;;;;20.88;11.63;;;3.80;86.70;;;;;;5106072;28;20051;-65
2021/03/16 06:18:41;;;;;;;17.98;11.00;;;3.80;86.90;;;;;;5115523;28;20027;-65
2021/03/16 06:21:08;;;;;;;20.25;11.50;;;3.70;86.90;;;;;;5117746;28;20028;-64
2021/03/16 06:23:35;;;;;;;23.02;13.45;;;3.80;86.60;;;;;;5090335;28;20044;-66
2021/03/16 06:26:11;;;;;;;21.23;12.23;;;3.60;87.10;;;;;;5112327;28;20035;-65
2021/03/16 06:28:37;;;;;;;22.85;12.93;;;3.60;87.50;;;;;;5097101;28;20032;-65
2021/03/16 06:31:03;;;;;;;21.80;13.13;;;3.70;87.40;;;;;;5115216;28;20034;-66
2021/03/16 06:33:31;;;;;;;24.35;12.15;;;3.70;87.90;;;;;;5107043;28;20072;-66
2021/03/16 06:36:03;;;;;;;18.65;12.70;;;3.60;87.70;;;;;;5060669;28;20093;-66
2021/03/16 06:38:30;;;;;;;19.70;11.75;;;3.80;87.30;;;;;;5103232;28;20040;-66
2021/03/16 06:41:07;;;;;;;19.98;11.75;;;3.70;87.50;;;;;;5116136;28;20077;-65
2021/03/16 06:43:32;;;;;;;19.40;11.98;;;3.60;88.00;;;;;;5113780;28;20393;-64
2021/03/16 06:45:58;;;;;;;19.73;11.30;;;3.70;87.70;;;;;;5115557;28;20032;-65
2021/03/16 06:48:25;;;;;;;26.38;14.02;;;3.70;87.30;;;;;;5091415;28;20036;-64
2021/03/16 06:50:52;;;;;;;25.23;13.27;;;3.80;87.20;;;;;;5094328;28;20115;-65
2021/03/16 06:53:20;;;;;;;20.50;12.68;;;3.70;88.00;;;;;;5098804;28;20035;-65
2021/03/16 06:55:56;;;;;;;18.85;12.48;;;3.50;88.80;;;;;;5114766;28;20101;-65
2021/03/16 06:58:33;;;;;;;28.45;12.38;;;3.70;88.60;;;;;;5110378;28;20120;-65
2021/03/16 07:01:08;;;;;;;20.08;12.05;;;3.80;87.90;;;;;;5076858;28;20101;-65
2021/03/16 07:03:34;;;;;;;21.25;12.55;;;3.70;87.80;;;;;;5099827;28;20062;-65
2021/03/16 07:06:14;;;;;;;21.60;13.32;;;3.70;88.30;;;;;;5096695;28;20055;-65
2021/03/16 07:08:44;;;;;;;21.42;13.38;;;3.70;88.50;;;;;;5109122;28;20032;-64
2021/03/16 07:11:13;;;;;;;21.73;14.02;;;3.80;88.40;;;;;;5093906;28;20078;-66
2021/03/16 07:13:40;;;;;;;21.67;13.15;;;3.90;87.90;;;;;;5098796;28;20115;-66
2021/03/16 07:16:06;;;;;;;27.92;15.77;;;4.00;88.10;;;;;;5116808;28;20124;-66
2021/03/16 07:18:38;;;;;;;24.63;14.55;;;3.90;88.60;;;;;;5116628;28;20655;-65
2021/03/16 07:21:11;;;;;;;27.33;14.48;;;4.00;88.00;;;;;;5116862;28;20073;-67
2021/03/16 07:23:48;;;;;;;20.58;14.85;;;4.00;88.10;;;;;;5115643;28;20035;-66
2021/03/16 07:26:14;;;;;;;19.13;13.25;;;3.90;88.00;;;;;;5093540;28;20070;-66
2021/03/16 07:28:40;;;;;;;23.27;13.93;;;3.90;87.70;;;;;;5096718;28;20081;-67
2021/03/16 07:31:06;;;;;;;25.52;13.98;;;4.00;87.50;;;;;;5112217;28;20104;-64
2021/03/16 07:33:32;;;;;;;23.92;15.88;;;4.00;87.30;;;;;;5112168;28;20063;-66
2021/03/16 07:35:58;;;;;;;24.67;14.65;;;4.20;86.90;;;;;;5075462;28;20058;-65
2021/03/16 07:38:24;;;;;;;26.65;16.58;;;4.20;86.60;;;;;;5075394;28;20067;-65
2021/03/16 07:40:51;;;;;;;25.52;16.70;;;4.10;86.90;;;;;;5113545;28;20093;-65
2021/03/16 07:43:17;;;;;;;28.02;16.98;;;4.20;87.00;;;;;;5113550;28;20122;-66
2021/03/16 07:45:45;;;;;;;25.20;16.88;;;4.30;86.50;;;;;;5112669;28;20019;-64
2021/03/16 07:48:15;;;;;;;24.42;15.90;;;4.30;85.70;;;;;;5114185;28;20031;-66
2021/03/16 07:50:41;;;;;;;28.83;16.13;;;4.40;84.50;;;;;;5094872;28;20032;-66
2021/03/16 07:53:07;;;;;;;21.08;14.50;;;4.20;84.40;;;;;;5075813;28;20047;-65
2021/03/16 07:55:33;;;;;;;22.58;14.20;;;4.30;84.30;;;;;;5074866;28;20040;-66
2021/03/16 07:58:10;;;;;;;26.55;15.45;;;4.30;84.60;;;;;;5095636;28;20043;-66
2021/03/16 08:00:38;;;;;;;25.95;15.23;;;4.20;84.20;;;;;;5108458;28;20064;-65
2021/03/16 08:03:08;;;;;;;25.70;14.20;;;4.30;84.00;;;;;;5078004;28;20060;-66
2021/03/16 08:05:44;;;;;;;26.20;14.82;;;4.30;84.30;;;;;;5094941;28;20111;-66
2021/03/16 08:08:15;;;;;;;28.88;16.75;;;4.40;83.70;;;;;;5110205;28;20031;-65
2021/03/16 08:10:41;;;;;;;21.30;14.50;;;4.50;84.40;;;;;;5058199;28;20035;-67
2021/03/16 08:13:13;;;;;;;23.10;14.40;;;4.60;84.20;;;;;;5094563;28;20035;-65
2021/03/16 08:15:44;;;;;;;22.90;14.15;;;4.70;82.40;;;;;;5095238;28;20115;-65
2021/03/16 08:18:10;;;;;;;21.55;13.68;;;4.70;82.20;;;;;;5111057;28;20031;-66
2021/03/16 08:20:36;;;;;;;19.63;11.98;;;4.70;82.40;;;;;;5074213;28;20047;-64
2021/03/16 08:23:10;;;;;;;22.23;13.05;;;4.90;81.80;;;;;;5092440;28;20123;-64
2021/03/16 08:25:37;;;;;;;23.47;12.77;;;4.70;82.00;;;;;;5089539;28;20080;-66
2021/03/16 08:28:09;;;;;;;20.92;12.75;;;4.80;81.90;;;;;;5112769;28;20063;-64
2021/03/16 08:30:39;;;;;;;18.63;12.52;;;4.90;81.90;;;;;;5091911;28;20093;-65
2021/03/16 08:33:15;;;;;;;19.02;12.30;;;5.00;82.00;;;;;;5092568;28;20060;-65
2021/03/16 08:35:50;;;;;;;19.05;12.82;;;4.90;81.30;;;;;;5073870;28;20078;-65
2021/03/16 08:38:24;;;;;;;19.75;12.77;;;5.10;81.40;;;;;;5093285;28;20510;-66
2021/03/16 08:41:02;;;;;;;20.35;12.02;;;5.00;81.50;;;;;;5114164;28;20036;-66
2021/03/16 08:43:27;;;;;;;23.58;12.32;;;5.10;80.90;;;;;;5113192;28;20072;-66
2021/03/16 08:45:53;;;;;;;17.65;12.20;;;5.00;80.70;;;;;;5112005;28;20027;-65
2021/03/16 08:48:30;;;;;;;21.15;13.23;;;4.90;80.80;;;;;;5112713;28;20039;-64
2021/03/16 08:50:56;;;;;;;23.20;13.30;;;4.80;81.20;;;;;;5094056;28;20479;-66
2021/03/16 08:53:22;;;;;;;18.50;12.80;;;4.70;81.80;;;;;;5091632;28;20059;-66
2021/03/16 08:55:50;;;;;;;19.35;12.52;;;4.70;81.30;;;;;;5092049;28;20063;-66
2021/03/16 08:58:17;;;;;;;20.25;12.52;;;4.80;81.10;;;;;;5093075;28;20114;-65
2021/03/16 09:00:43;;;;;;;19.35;12.85;;;5.00;81.00;;;;;;5091789;28;20410;-65
2021/03/16 09:03:09;;;;;;;22.35;11.52;;;5.20;81.00;;;;;;5094216;28;20590;-64
2021/03/16 09:05:35;;;;;;;19.88;12.30;;;5.30;80.00;;;;;;5094417;28;20123;-66
2021/03/16 09:08:00;;;;;;;20.38;11.55;;;5.20;80.50;;;;;;5091702;28;20024;-65
2021/03/16 09:10:27;;;;;;;19.88;12.57;;;5.20;80.50;;;;;;5088796;28;20032;-65
2021/03/16 09:12:54;;;;;;;18.85;12.88;;;5.20;79.80;;;;;;5092953;28;20031;-66
2021/03/16 09:15:26;;;;;;;16.20;10.70;;;5.20;79.70;;;;;;5079488;28;20040;-66
2021/03/16 09:17:56;;;;;;;17.65;10.20;;;5.30;79.70;;;;;;5057132;28;20039;-65
2021/03/16 09:20:31;;;;;;;19.88;10.70;;;5.40;79.50;;;;;;5104357;28;20043;-65
2021/03/16 09:23:05;;;;;;;19.25;10.30;;;5.50;79.80;;;;;;5094352;28;20023;-66
2021/03/16 09:25:38;;;;;;;19.30;10.25;;;5.10;80.20;;;;;;5111979;28;20036;-65
2021/03/16 09:28:06;;;;;;;22.77;10.88;;;5.20;80.60;;;;;;5112365;28;20024;-65
2021/03/16 09:30:38;;;;;;;21.85;9.52;;;5.20;80.10;;;;;;5098280;28;20032;-64
2021/03/16 09:33:06;;;;;;;17.83;8.95;;;5.30;79.80;;;;;;5093016;28;20116;-63
2021/03/16 09:35:33;;;;;;;15.93;9.55;;;5.40;79.80;;;;;;5105533;28;20034;-64
2021/03/16 09:37:58;;;;;;;14.70;9.02;;;5.40;78.90;;;;;;5112380;28;20394;-64
2021/03/16 09:40:35;;;;;;;14.07;8.40;;;5.50;79.00;;;;;;5100198;28;20047;-66
2021/03/16 09:43:02;;;;;;;17.35;8.40;;;5.60;78.10;;;;;;5091941;28;20089;-65
2021/03/16 09:45:30;;;;;;;14.25;8.50;;;5.30;78.60;;;;;;5085010;28;20036;-66
2021/03/16 09:47:57;;;;;;;16.73;8.60;;;5.20;79.30;;;;;;5116274;28;20056;-65
2021/03/16 09:50:31;;;;;;;14.75;9.02;;;5.20;79.10;;;;;;5105321;28;20028;-65
2021/03/16 09:53:06;;;;;;;;;;;5.20;79.60;;;;;;5077480;28;20111;-65
2021/03/16 09:55:33;;;;;;;18.58;8.07;;;5.40;79.10;;;;;;5106038;28;20385;-64
2021/03/16 09:58:00;;;;;;;16.20;8.48;;;5.60;79.10;;;;;;5115866;28;20067;-65
2021/03/16 10:00:28;;;;;;;18.70;8.23;;;5.60;78.60;;;;;;5097039;28;20032;-66
2021/03/16 10:03:04;;;;;;;18.15;9.35;;;5.70;77.10;;;;;;5097429;28;20106;-66
2021/03/16 10:05:30;;;;;;;16.05;8.10;;;5.60;77.40;;;;;;5105180;28;20028;-65
2021/03/16 10:07:55;;;;;;;18.63;9.07;;;5.50;78.60;;;;;;5095450;28;20379;-65
2021/03/16 10:10:23;;;;;;;16.63;7.47;;;5.40;78.80;;;;;;5102319;28;20054;-64
2021/03/16 10:12:57;;;;;;;15.00;7.68;;;5.60;78.30;;;;;;5115031;28;20035;-64
2021/03/16 10:15:34;;;;;;;22.50;8.00;;;5.80;77.60;;;;;;5106309;28;20032;-65
2021/03/16 10:18:02;;;;;;;14.13;7.50;;;5.90;76.70;;;;;;5095705;28;20049;-65
2021/03/16 10:20:36;;;;;;;17.83;8.52;;;5.90;77.00;;;;;;5114132;28;20161;-66
2021/03/16 10:23:25;;;;;;;12.20;7.13;;;5.80;76.70;;;;;;5101280;28;20077;-64
2021/03/16 10:25:56;;;;;;;15.05;6.63;;;5.80;77.70;;;;;;5092435;28;20039;-65
2021/03/16 10:28:36;;;;;;;22.17;7.20;;;5.70;78.00;;;;;;5120149;28;20032;-64
2021/03/16 10:31:16;;;;;;;16.55;8.27;;;5.80;78.00;;;;;;5121725;28;20073;-64
2021/03/16 10:33:44;;;;;;;12.40;6.70;;;5.90;77.00;;;;;;5096299;28;20115;-65
2021/03/16 10:36:10;;;;;;;13.32;6.45;;;6.10;76.90;;;;;;5113619;28;20081;-64
2021/03/16 10:38:36;;;;;;;15.15;6.80;;;6.20;77.50;;;;;;5094403;28;20058;-65
2021/03/16 10:41:02;;;;;;;18.45;6.28;;;6.20;75.40;;;;;;5091230;28;20035;-66
2021/03/16 10:43:28;;;;;;;12.55;7.85;;;6.20;76.00;;;;;;5114925;28;20206;-65
2021/03/16 10:45:55;;;;;;;15.32;7.32;;;6.20;76.30;;;;;;5114188;27;20027;-64
2021/03/16 10:48:22;;;;;;;14.68;7.78;;;6.30;75.50;;;;;;5114603;28;20027;-65
2021/03/16 10:50:48;;;;;;;13.60;7.60;;;6.30;76.00;;;;;;5095406;28;20027;-65
2021/03/16 10:53:15;;;;;;;15.32;8.45;;;6.30;75.70;;;;;;5114277;28;20398;-64
2021/03/16 10:55:41;;;;;;;18.75;8.32;;;6.20;75.10;;;;;;5079640;28;20047;-66
2021/03/16 10:58:07;;;;;;;17.50;8.40;;;6.20;75.80;;;;;;5074678;28;20036;-64
2021/03/16 11:00:33;;;;;;;16.85;7.78;;;6.30;76.20;;;;;;5094201;28;20344;-65
2021/03/16 11:02:58;;;;;;;13.18;7.75;;;6.50;75.20;;;;;;5093579;28;20040;-66
2021/03/16 11:05:24;;;;;;;14.15;7.93;;;6.50;75.10;;;;;;5075940;28;20028;-66
2021/03/16 11:07:49;;;;;;;17.60;8.65;;;6.40;75.50;;;;;;5093270;28;20035;-66
2021/03/16 11:10:15;;;;;;;14.00;8.95;;;6.50;74.90;;;;;;5093101;28;20649;-66
2021/03/16 11:12:41;;;;;;;16.13;8.45;;;6.60;74.10;;;;;;5093172;28;20028;-64
2021/03/16 11:15:07;;;;;;;16.90;9.20;;;6.70;73.80;;;;;;5103200;28;20394;-64
2021/03/16 11:17:33;;;;;;;17.02;9.32;;;6.50;73.20;;;;;;5113587;28;20063;-65
2021/03/16 11:19:59;;;;;;;12.73;8.32;;;6.40;74.00;;;;;;5112735;28;20055;-65
2021/03/16 11:22:24;;;;;;;15.25;8.55;;;6.40;75.20;;;;;;5094653;28;20043;-66
2021/03/16 11:24:50;;;;;;;23.55;9.48;;;6.40;74.60;;;;;;5112499;28;20413;-64
2021/03/16 11:27:16;;;;;;;22.23;9.43;;;6.40;75.40;;;;;;5112883;28;20032;-66
2021/03/16 11:29:41;;;;;;;17.63;8.93;;;6.60;75.20;;;;;;5108629;28;20020;-66
2021/03/16 11:32:07;;;;;;;21.75;9.02;;;6.70;74.40;;;;;;5092728;28;20034;-64
2021/03/16 11:34:33;;;;;;;17.92;7.43;;;6.80;73.70;;;;;;5093309;28;20142;-64
2021/03/16 11:40:22;;;;;;;17.67;7.15;;;6.90;74.00;;;;;;5100693;28;20039;-65
2021/03/16 11:42:48;;;;;;;15.60;7.32;;;6.80;73.60;;;;;;5092250;28;20036;-65
2021/03/16 11:45:19;;;;;;;16.83;7.95;;;6.70;73.40;;;;;;5103031;28;20704;-65
2021/03/16 11:47:44;;;;;;;12.90;7.03;;;6.70;73.50;;;;;;5111637;28;20023;-64
2021/03/16 11:50:11;;;;;;;15.60;7.53;;;6.70;73.40;;;;;;5111463;28;20082;-64
2021/03/16 11:52:36;;;;;;;15.02;7.95;;;6.70;73.10;;;;;;5112543;28;20403;-65
2021/03/16 11:55:05;;;;;;;13.38;9.02;;;6.70;72.30;;;;;;5104626;28;20027;-64
2021/03/16 11:57:31;;;;;;;13.02;8.23;;;6.80;72.50;;;;;;5106347;28;20028;-64
2021/03/16 11:59:56;;;;;;;18.60;7.40;;;6.90;72.50;;;;;;5094985;28;20464;-64
2021/03/16 12:02:22;;;;;;;17.35;6.95;;;6.70;73.60;;;;;;5091198;28;20031;-65
2021/03/16 12:04:47;;;;;;;8.32;5.97;;;6.90;73.30;;;;;;5109701;28;20553;-64
2021/03/16 12:07:13;;;;;;;16.92;6.18;;;6.80;72.40;;;;;;5093156;28;20043;-64
2021/03/16 12:09:39;;;;;;;11.90;5.50;;;6.90;72.50;;;;;;5110035;28;20051;-66
2021/03/16 12:12:04;;;;;;;13.18;5.53;;;7.00;72.10;;;;;;5111347;28;20118;-64
2021/03/16 12:14:30;;;;;;;10.88;4.35;;;7.10;70.60;;;;;;5090099;28;20520;-64
2021/03/16 12:22:26;;;;;;;10.32;4.53;;;7.10;70.00;;;;;;5041807;28;20057;-66
2021/03/16 12:24:51;;;;;;;8.40;4.13;;;7.10;69.50;;;;;;5042717;28;20094;-64
2021/03/16 12:27:17;;;;;;;10.32;4.75;;;7.00;69.90;;;;;;5051052;28;20033;-64
2021/03/16 12:29:43;;;;;;;13.30;4.90;;;7.10;70.20;;;;;;5061115;28;20799;-64
2021/03/16 12:32:09;;;;;;;10.95;4.40;;;7.10;71.50;;;;;;5072626;28;20124;-64
2021/03/16 12:34:34;;;;;;;10.38;3.92;;;7.10;70.70;;;;;;5071619;28;20079;-65
2021/03/16 12:37:00;;;;;;;10.88;4.28;;;7.00;69.80;;;;;;5070440;28;20560;-65
2021/03/16 12:39:26;;;;;;;9.60;4.07;;;7.10;68.70;;;;;;5052659;28;20039;-64
2021/03/16 12:41:52;;;;;;;8.00;4.53;;;7.20;68.30;;;;;;5052934;28;20060;-65
2021/03/16 12:44:18;;;;;;;13.68;4.97;;;7.40;67.20;;;;;;5071355;28;20087;-65
2021/03/16 12:46:43;;;;;;;8.73;5.15;;;7.40;67.20;;;;;;5071387;28;20090;-65
2021/03/16 12:49:09;;;;;;;13.52;6.25;;;7.60;67.00;;;;;;5052108;28;20044;-66
2021/03/16 12:51:35;;;;;;;9.75;5.60;;;7.50;66.70;;;;;;5070311;28;20043;-64
2021/03/16 12:54:00;;;;;;;6.00;5.07;;;7.60;67.10;;;;;;5072784;28;20072;-65
2021/03/16 12:56:26;;;;;;;8.85;5.35;;;7.60;67.10;;;;;;5053667;28;20044;-65
2021/03/16 12:58:51;;;;;;;7.68;4.57;;;7.80;65.70;;;;;;5073022;28;20041;-65
2021/03/16 13:01:17;;;;;;;7.50;4.47;;;7.80;65.40;;;;;;5053053;28;20032;-65
2021/03/16 13:03:42;;;;;;;6.40;3.72;;;7.80;64.80;;;;;;5071025;28;20090;-64
2021/03/16 13:06:08;;;;;;;10.23;4.43;;;7.80;63.80;;;;;;5053738;28;20071;-64
2021/03/16 13:08:34;;;;;;;9.40;4.47;;;7.90;64.40;;;;;;5071411;28;20035;-65
2021/03/16 13:11:00;;;;;;;12.52;4.50;;;7.90;62.00;;;;;;5071107;28;20110;-65
2021/03/16 13:13:25;;;;;;;10.15;5.07;;;7.70;63.30;;;;;;5051936;28;20032;-65
2021/03/16 13:15:51;;;;;;;9.77;4.78;;;7.70;63.10;;;;;;5071758;28;20125;-67
2021/03/16 13:18:16;;;;;;;8.40;5.03;;;7.60;63.20;;;;;;5070822;28;20032;-66
2021/03/16 13:20:45;;;;;;;9.93;4.55;;;7.70;63.50;;;;;;5073216;28;20156;-65
2021/03/16 13:23:11;;;;;;;8.07;4.22;;;7.80;64.70;;;;;;5065337;28;20048;-65
2021/03/16 13:25:36;;;;;;;9.88;4.78;;;7.70;65.30;;;;;;5060418;28;20518;-67
2021/03/16 13:28:03;;;;;;;11.52;5.07;;;7.60;65.50;;;;;;5048090;28;20082;-65
2021/03/16 13:30:30;;;;;;;8.70;5.20;;;7.80;64.80;;;;;;5057534;28;20406;-65
2021/03/16 13:32:57;;;;;;;8.93;4.50;;;7.90;65.60;;;;;;5057438;28;20040;-65
2021/03/16 13:35:23;;;;;;;11.73;5.22;;;8.30;65.80;;;;;;5076253;28;20048;-68
2021/03/16 13:37:51;;;;;;;8.00;5.40;;;8.70;62.70;;;;;;5057140;28;20036;-63
2021/03/16 13:40:18;;;;;;;10.57;5.22;;;8.60;61.80;;;;;;5075636;28;20036;-63